Spirit Of New York — WCW9332 — position and weather

sailwx.info

Track history (hours):
 
Tides and Currents Weather Stations Pressure Air Temp Water Temp Dewpoint Dewpoint Depression Visibility Wind Speed Wind Dir Waves Ship Positions

Spirit Of New York

Owner: SPIRIT CRUISES LLC, NEW YORK, NY. More information available from US FCC via Universal Licensing System and Coast Guard Vessel Documentation Center.

Last reported at 2018-Apr-21 15:30 UTC. Time now 2018-Apr-21 15:43 UTC.
Position N 40°45' W 074°01'.

Length 48 m; draft 2.2 m.

Type: Passenger vessel. MMSI: 338897000.

Date/timePositionNaut miles runAvg speedWind from/ knotsBaromVisibWave heightAir tempDewpointWater temp
2018-Apr-21 15:30N 40°45' W 074°01'0 0.0
2018-Apr-21 15:01N 40°45' W 074°01'0 0.0
2018-Apr-21 01:26N 40°45' W 074°01'1 3.5
2018-Apr-21 01:00N 40°43' W 074°01'3 5.0
2018-Apr-21 00:30N 40°41' W 074°03'2 4.2
2018-Apr-21 00:00N 40°42' W 074°00'4 7.8
2018-Apr-20 23:30N 40°46' W 074°00'1 2.2
2018-Apr-20 23:00N 40°45' W 074°01'0 0.0
2018-Apr-20 22:29N 40°45' W 074°01'0 0.0
2018-Apr-20 22:00N 40°45' W 074°01'0 0.0
2018-Apr-20 01:29N 40°45' W 074°01'2 3.2
2018-Apr-20 01:00N 40°43' W 074°01'2 4.9
2018-Apr-20 00:31N 40°41' W 074°03'2 4.9
2018-Apr-20 00:00N 40°42' W 073°60'3 6.2
2018-Apr-19 23:30N 40°45' W 074°01'1 1.0
2018-Apr-19 23:00N 40°45' W 074°01'0 0.0
2018-Apr-19 22:30N 40°45' W 074°01'0 0.0
2018-Apr-19 22:00N 40°45' W 074°01'0 0.0
2018-Apr-19 01:30N 40°45' W 074°01'2 3.8
2018-Apr-19 01:00N 40°43' W 074°01'2 3.1
2018-Apr-19 00:30N 40°42' W 074°02'2 3.4
2018-Apr-19 00:00N 40°42' W 073°60'3 6.7
2018-Apr-18 23:31N 40°45' W 074°01'0 1.0
2018-Apr-18 23:00N 40°45' W 074°01'0 0.0
2018-Apr-18 03:25N 40°45' W 074°01'2 3.8
2018-Apr-18 03:01N 40°43' W 074°01'2 4.0
2018-Apr-18 02:29N 40°42' W 074°02'2 3.8
2018-Apr-18 02:00N 40°42' W 073°60'3 5.3
2018-Apr-18 01:31N 40°45' W 074°01'0 0.6
2018-Apr-18 01:01N 40°45' W 074°01'0 0.0
2018-Apr-18 00:30N 40°45' W 074°01'0 0.0
2018-Apr-18 00:00N 40°45' W 074°01'0 0.0
2018-Apr-17 01:31N 40°45' W 074°01'0 0.0
2018-Apr-17 01:30N 40°45' W 074°01'2 3.1
2018-Apr-17 01:00N 40°43' W 074°01'2 3.7
2018-Apr-17 00:30N 40°42' W 074°02'1 2.0
2018-Apr-17 00:00N 40°42' W 074°01'3 6.9
2018-Apr-16 23:30N 40°45' W 074°01'0 0.9
2018-Apr-16 23:00N 40°45' W 074°01'0 0.0
2018-Apr-16 22:30N 40°45' W 074°01'0 0.0
2018-Apr-16 22:00N 40°45' W 074°01'0 0.0
2018-Apr-16 21:30N 40°45' W 074°01'0 0.0
2018-Apr-16 21:00N 40°45' W 074°01'0 0.0
2018-Apr-16 20:30N 40°45' W 074°01'0 0.0
2018-Apr-16 19:59N 40°45' W 074°01'0 0.0
2018-Apr-16 19:29N 40°45' W 074°01'0 0.0
2018-Apr-16 19:00N 40°45' W 074°01'0 0.0
2018-Apr-16 18:30N 40°45' W 074°01'0 0.0
2018-Apr-16 18:00N 40°45' W 074°01'0 0.0
2018-Apr-16 17:30N 40°45' W 074°01'0 0.3
2018-Apr-16 17:00N 40°45' W 074°01'1 1.4
2018-Apr-16 16:30N 40°46' W 074°01'0 0.0
2018-Apr-16 16:00N 40°46' W 074°01'0 0.0
2018-Apr-16 15:29N 40°46' W 074°01'0 0.0
2018-Apr-16 15:00N 40°46' W 074°01'0 0.0
2018-Apr-16 14:30N 40°46' W 074°01'0 0.0
2018-Apr-16 14:00N 40°46' W 074°01'0 0.0
2018-Apr-16 13:30N 40°46' W 074°01'0 0.0
2018-Apr-16 13:00N 40°46' W 074°01'0 0.0
2018-Apr-16 12:30N 40°46' W 074°01'1 1.5
2018-Apr-16 11:59N 40°45' W 074°01'0 0.0
2018-Apr-16 00:29N 40°45' W 074°01'1 2.8
2018-Apr-16 00:00N 40°44' W 074°01'2 4.9
2018-Apr-15 23:30N 40°41' W 074°02'2 3.2
2018-Apr-15 23:00N 40°42' W 074°00'3 6.4
2018-Apr-15 22:30N 40°45' W 074°01'0 0.6
2018-Apr-15 22:00N 40°45' W 074°01'0 0.0
2018-Apr-15 21:30N 40°45' W 074°01'0 0.0
2018-Apr-15 21:01N 40°45' W 074°01'0 0.0
2018-Apr-15 20:30N 40°45' W 074°01'0 0.0
2018-Apr-15 20:00N 40°45' W 074°01'0 0.0
2018-Apr-15 19:30N 40°45' W 074°01'0 0.0
2018-Apr-15 19:00N 40°45' W 074°01'0 0.0
2018-Apr-15 18:30N 40°45' W 074°01'0 0.0
2018-Apr-15 18:01N 40°45' W 074°01'1 2.8
2018-Apr-15 17:30N 40°44' W 074°01'3 5.3
2018-Apr-15 17:00N 40°41' W 074°03'2 3.0
2018-Apr-15 16:30N 40°42' W 074°01'3 5.2
2018-Apr-15 16:00N 40°45' W 074°01'0 0.0
2018-Apr-15 15:30N 40°45' W 074°01'0 0.0
2018-Apr-15 14:59N 40°45' W 074°01'0 0.0
2018-Apr-15 14:30N 40°45' W 074°01'0 0.0
2018-Apr-15 14:00N 40°45' W 074°01'0 0.0
2018-Apr-15 02:02N 40°45' W 074°01'0 0.0
2018-Apr-15 02:00N 40°45' W 074°01'1 2.9
2018-Apr-15 01:30N 40°44' W 074°01'2 4.8
2018-Apr-15 01:00N 40°41' W 074°02'3 5.2
2018-Apr-15 00:30N 40°42' W 073°59'2 3.1
2018-Apr-15 00:00N 40°43' W 074°01'3 6.1
2018-Apr-14 23:30N 40°46' W 074°00'1 2.3
2018-Apr-14 23:00N 40°45' W 074°01'0 0.0
2018-Apr-14 22:30N 40°45' W 074°01'0 0.0
2018-Apr-14 22:00N 40°45' W 074°01'0 0.0
2018-Apr-14 21:30N 40°45' W 074°01'0 0.0
2018-Apr-14 21:00N 40°45' W 074°01'0 0.0
2018-Apr-14 20:30N 40°45' W 074°01'0 0.0
2018-Apr-14 20:00N 40°45' W 074°01'0 0.0
2018-Apr-14 19:30N 40°45' W 074°01'0 0.0
2018-Apr-14 19:00N 40°45' W 074°01'0 0.0
2018-Apr-14 18:30N 40°45' W 074°01'0 0.0
2018-Apr-14 18:00N 40°45' W 074°01'2 3.4
2018-Apr-14 17:30N 40°43' W 074°01'2 4.8
2018-Apr-14 17:00N 40°41' W 074°03'3 5.3
2018-Apr-14 16:30N 40°44' W 074°01'1 2.9
2018-Apr-14 16:00N 40°45' W 074°01'0 0.0
2018-Apr-14 15:30N 40°45' W 074°01'0 0.0
2018-Apr-14 15:00N 40°45' W 074°01'0 0.0
2018-Apr-14 14:30N 40°45' W 074°01'0 0.0
2018-Apr-14 14:00N 40°45' W 074°01'0 0.0
2018-Apr-14 13:30N 40°45' W 074°01'0 0.3
2018-Apr-14 13:00N 40°45' W 074°01'4 7.2
2018-Apr-14 12:30N 40°41' W 074°02'3 5.1
2018-Apr-14 12:00N 40°44' W 074°01'1 2.3
2018-Apr-14 11:30N 40°45' W 074°01'0 0.0
2018-Apr-14 11:00N 40°45' W 074°01'0 0.0
2018-Apr-14 01:28N 40°45' W 074°01'2 3.4
2018-Apr-14 01:00N 40°43' W 074°01'2 4.0
2018-Apr-14 00:30N 40°42' W 074°02'1 2.2
2018-Apr-14 00:00N 40°42' W 074°01'3 6.2
2018-Apr-13 23:30N 40°45' W 074°01'0 0.6
2018-Apr-13 23:00N 40°45' W 074°01'0 0.0
2018-Apr-13 22:29N 40°45' W 074°01'0 0.0
2018-Apr-13 22:00N 40°45' W 074°01'0 0.0
2018-Apr-13 21:29N 40°45' W 074°01'0 0.0
2018-Apr-13 21:00N 40°45' W 074°01'0 0.0
2018-Apr-13 20:30N 40°45' W 074°01'0 0.0
2018-Apr-13 20:00N 40°45' W 074°01'0 0.0
2018-Apr-13 19:30N 40°45' W 074°01'0 0.0
2018-Apr-13 19:00N 40°45' W 074°01'0 0.0
2018-Apr-13 18:30N 40°45' W 074°01'0 0.0
2018-Apr-13 18:00N 40°45' W 074°01'1 1.6
2018-Apr-13 17:30N 40°46' W 074°01'2 3.2
2018-Apr-13 17:00N 40°44' W 074°01'3 5.8
2018-Apr-13 16:30N 40°41' W 074°02'1 2.4
2018-Apr-13 16:00N 40°42' W 074°01'4 7.3
2018-Apr-13 15:29N 40°46' W 074°01'0 0.0
2018-Apr-13 15:00N 40°46' W 074°01'0 0.5
2018-Apr-13 14:30N 40°46' W 074°01'1 1.3
2018-Apr-13 14:00N 40°45' W 074°01'0 0.0
2018-Apr-13 13:30N 40°45' W 074°01'0 0.0
2018-Apr-13 13:00N 40°45' W 074°01'0 0.0
2018-Apr-13 01:27N 40°45' W 074°01'2 4.1
2018-Apr-13 01:00N 40°43' W 074°01'1 2.6
2018-Apr-13 00:30N 40°42' W 074°02'1 1.0
2018-Apr-13 00:00N 40°42' W 074°01'3 6.6
2018-Apr-12 23:30N 40°45' W 074°01'0 0.9
2018-Apr-12 23:00N 40°45' W 074°01'0 0.0
2018-Apr-12 01:25N 40°45' W 074°01'1 3.1
2018-Apr-12 01:00N 40°44' W 074°01'3 5.1
2018-Apr-12 00:31N 40°41' W 074°03'2 3.0
2018-Apr-12 00:00N 40°42' W 074°01'3 6.4
2018-Apr-11 23:30N 40°45' W 074°01'0 0.4
2018-Apr-11 23:00N 40°45' W 074°01'  
Track history (hours):
 
Tides and Currents Weather Stations Pressure Air Temp Water Temp Dewpoint Dewpoint Depression Visibility Wind Speed Wind Dir Waves Ship Positions

Spirit Of New York

Owner: SPIRIT CRUISES LLC, NEW YORK, NY. More information available from US FCC via Universal Licensing System and Coast Guard Vessel Documentation Center.

Last reported at 2018-Apr-21 15:30 UTC. Time now 2018-Apr-21 15:43 UTC.
Position N 40°45' W 074°01'.

Length 48 m; draft 2.2 m.

Type: Passenger vessel. MMSI: 338897000.

Date/timePositionNaut miles runAvg speedWind from/ knotsBaromVisibWave heightAir tempDewpointWater temp
2018-Apr-21 15:30N 40°45' W 074°01'0 0.0
2018-Apr-21 15:01N 40°45' W 074°01'0 0.0
2018-Apr-21 01:26N 40°45' W 074°01'1 3.5
2018-Apr-21 01:00N 40°43' W 074°01'3 5.0
2018-Apr-21 00:30N 40°41' W 074°03'2 4.2
2018-Apr-21 00:00N 40°42' W 074°00'4 7.8
2018-Apr-20 23:30N 40°46' W 074°00'1 2.2
2018-Apr-20 23:00N 40°45' W 074°01'0 0.0
2018-Apr-20 22:29N 40°45' W 074°01'0 0.0
2018-Apr-20 22:00N 40°45' W 074°01'0 0.0
2018-Apr-20 01:29N 40°45' W 074°01'2 3.2
2018-Apr-20 01:00N 40°43' W 074°01'2 4.9
2018-Apr-20 00:31N 40°41' W 074°03'2 4.9
2018-Apr-20 00:00N 40°42' W 073°60'3 6.2
2018-Apr-19 23:30N 40°45' W 074°01'1 1.0
2018-Apr-19 23:00N 40°45' W 074°01'0 0.0
2018-Apr-19 22:30N 40°45' W 074°01'0 0.0
2018-Apr-19 22:00N 40°45' W 074°01'0 0.0
2018-Apr-19 01:30N 40°45' W 074°01'2 3.8
2018-Apr-19 01:00N 40°43' W 074°01'2 3.1
2018-Apr-19 00:30N 40°42' W 074°02'2 3.4
2018-Apr-19 00:00N 40°42' W 073°60'3 6.7
2018-Apr-18 23:31N 40°45' W 074°01'0 1.0
2018-Apr-18 23:00N 40°45' W 074°01'0 0.0
2018-Apr-18 03:25N 40°45' W 074°01'2 3.8
2018-Apr-18 03:01N 40°43' W 074°01'2 4.0
2018-Apr-18 02:29N 40°42' W 074°02'2 3.8
2018-Apr-18 02:00N 40°42' W 073°60'3 5.3
2018-Apr-18 01:31N 40°45' W 074°01'0 0.6
2018-Apr-18 01:01N 40°45' W 074°01'0 0.0
2018-Apr-18 00:30N 40°45' W 074°01'0 0.0
2018-Apr-18 00:00N 40°45' W 074°01'0 0.0
2018-Apr-17 01:31N 40°45' W 074°01'0 0.0
2018-Apr-17 01:30N 40°45' W 074°01'2 3.1
2018-Apr-17 01:00N 40°43' W 074°01'2 3.7
2018-Apr-17 00:30N 40°42' W 074°02'1 2.0
2018-Apr-17 00:00N 40°42' W 074°01'3 6.9
2018-Apr-16 23:30N 40°45' W 074°01'0 0.9
2018-Apr-16 23:00N 40°45' W 074°01'0 0.0
2018-Apr-16 22:30N 40°45' W 074°01'0 0.0
2018-Apr-16 22:00N 40°45' W 074°01'0 0.0
2018-Apr-16 21:30N 40°45' W 074°01'0 0.0
2018-Apr-16 21:00N 40°45' W 074°01'0 0.0
2018-Apr-16 20:30N 40°45' W 074°01'0 0.0
2018-Apr-16 19:59N 40°45' W 074°01'0 0.0
2018-Apr-16 19:29N 40°45' W 074°01'0 0.0
2018-Apr-16 19:00N 40°45' W 074°01'0 0.0
2018-Apr-16 18:30N 40°45' W 074°01'0 0.0
2018-Apr-16 18:00N 40°45' W 074°01'0 0.0
2018-Apr-16 17:30N 40°45' W 074°01'0 0.3
2018-Apr-16 17:00N 40°45' W 074°01'1 1.4
2018-Apr-16 16:30N 40°46' W 074°01'0 0.0
2018-Apr-16 16:00N 40°46' W 074°01'0 0.0
2018-Apr-16 15:29N 40°46' W 074°01'0 0.0
2018-Apr-16 15:00N 40°46' W 074°01'0 0.0
2018-Apr-16 14:30N 40°46' W 074°01'0 0.0
2018-Apr-16 14:00N 40°46' W 074°01'0 0.0
2018-Apr-16 13:30N 40°46' W 074°01'0 0.0
2018-Apr-16 13:00N 40°46' W 074°01'0 0.0
2018-Apr-16 12:30N 40°46' W 074°01'1 1.5
2018-Apr-16 11:59N 40°45' W 074°01'0 0.0
2018-Apr-16 00:29N 40°45' W 074°01'1 2.8
2018-Apr-16 00:00N 40°44' W 074°01'2 4.9
2018-Apr-15 23:30N 40°41' W 074°02'2 3.2
2018-Apr-15 23:00N 40°42' W 074°00'3 6.4
2018-Apr-15 22:30N 40°45' W 074°01'0 0.6
2018-Apr-15 22:00N 40°45' W 074°01'0 0.0
2018-Apr-15 21:30N 40°45' W 074°01'0 0.0
2018-Apr-15 21:01N 40°45' W 074°01'0 0.0
2018-Apr-15 20:30N 40°45' W 074°01'0 0.0
2018-Apr-15 20:00N 40°45' W 074°01'0 0.0
2018-Apr-15 19:30N 40°45' W 074°01'0 0.0
2018-Apr-15 19:00N 40°45' W 074°01'0 0.0
2018-Apr-15 18:30N 40°45' W 074°01'0 0.0
2018-Apr-15 18:01N 40°45' W 074°01'1 2.8
2018-Apr-15 17:30N 40°44' W 074°01'3 5.3
2018-Apr-15 17:00N 40°41' W 074°03'2 3.0
2018-Apr-15 16:30N 40°42' W 074°01'3 5.2
2018-Apr-15 16:00N 40°45' W 074°01'0 0.0
2018-Apr-15 15:30N 40°45' W 074°01'0 0.0
2018-Apr-15 14:59N 40°45' W 074°01'0 0.0
2018-Apr-15 14:30N 40°45' W 074°01'0 0.0
2018-Apr-15 14:00N 40°45' W 074°01'0 0.0
2018-Apr-15 02:02N 40°45' W 074°01'0 0.0
2018-Apr-15 02:00N 40°45' W 074°01'1 2.9
2018-Apr-15 01:30N 40°44' W 074°01'2 4.8
2018-Apr-15 01:00N 40°41' W 074°02'3 5.2
2018-Apr-15 00:30N 40°42' W 073°59'2 3.1
2018-Apr-15 00:00N 40°43' W 074°01'3 6.1
2018-Apr-14 23:30N 40°46' W 074°00'1 2.3
2018-Apr-14 23:00N 40°45' W 074°01'0 0.0
2018-Apr-14 22:30N 40°45' W 074°01'0 0.0
2018-Apr-14 22:00N 40°45' W 074°01'0 0.0
2018-Apr-14 21:30N 40°45' W 074°01'0 0.0
2018-Apr-14 21:00N 40°45' W 074°01'0 0.0
2018-Apr-14 20:30N 40°45' W 074°01'0 0.0
2018-Apr-14 20:00N 40°45' W 074°01'0 0.0
2018-Apr-14 19:30N 40°45' W 074°01'0 0.0
2018-Apr-14 19:00N 40°45' W 074°01'0 0.0
2018-Apr-14 18:30N 40°45' W 074°01'0 0.0
2018-Apr-14 18:00N 40°45' W 074°01'2 3.4
2018-Apr-14 17:30N 40°43' W 074°01'2 4.8
2018-Apr-14 17:00N 40°41' W 074°03'3 5.3
2018-Apr-14 16:30N 40°44' W 074°01'1 2.9
2018-Apr-14 16:00N 40°45' W 074°01'0 0.0
2018-Apr-14 15:30N 40°45' W 074°01'0 0.0
2018-Apr-14 15:00N 40°45' W 074°01'0 0.0
2018-Apr-14 14:30N 40°45' W 074°01'0 0.0
2018-Apr-14 14:00N 40°45' W 074°01'0 0.0
2018-Apr-14 13:30N 40°45' W 074°01'0 0.3
2018-Apr-14 13:00N 40°45' W 074°01'4 7.2
2018-Apr-14 12:30N 40°41' W 074°02'3 5.1
2018-Apr-14 12:00N 40°44' W 074°01'1 2.3
2018-Apr-14 11:30N 40°45' W 074°01'0 0.0
2018-Apr-14 11:00N 40°45' W 074°01'0 0.0
2018-Apr-14 01:28N 40°45' W 074°01'2 3.4
2018-Apr-14 01:00N 40°43' W 074°01'2 4.0
2018-Apr-14 00:30N 40°42' W 074°02'1 2.2
2018-Apr-14 00:00N 40°42' W 074°01'3 6.2
2018-Apr-13 23:30N 40°45' W 074°01'0 0.6
2018-Apr-13 23:00N 40°45' W 074°01'0 0.0
2018-Apr-13 22:29N 40°45' W 074°01'0 0.0
2018-Apr-13 22:00N 40°45' W 074°01'0 0.0
2018-Apr-13 21:29N 40°45' W 074°01'0 0.0
2018-Apr-13 21:00N 40°45' W 074°01'0 0.0
2018-Apr-13 20:30N 40°45' W 074°01'0 0.0
2018-Apr-13 20:00N 40°45' W 074°01'0 0.0
2018-Apr-13 19:30N 40°45' W 074°01'0 0.0
2018-Apr-13 19:00N 40°45' W 074°01'0 0.0
2018-Apr-13 18:30N 40°45' W 074°01'0 0.0
2018-Apr-13 18:00N 40°45' W 074°01'1 1.6
2018-Apr-13 17:30N 40°46' W 074°01'2 3.2
2018-Apr-13 17:00N 40°44' W 074°01'3 5.8
2018-Apr-13 16:30N 40°41' W 074°02'1 2.4
2018-Apr-13 16:00N 40°42' W 074°01'4 7.3
2018-Apr-13 15:29N 40°46' W 074°01'0 0.0
2018-Apr-13 15:00N 40°46' W 074°01'0 0.5
2018-Apr-13 14:30N 40°46' W 074°01'1 1.3
2018-Apr-13 14:00N 40°45' W 074°01'0 0.0
2018-Apr-13 13:30N 40°45' W 074°01'0 0.0
2018-Apr-13 13:00N 40°45' W 074°01'0 0.0
2018-Apr-13 01:27N 40°45' W 074°01'2 4.1
2018-Apr-13 01:00N 40°43' W 074°01'1 2.6
2018-Apr-13 00:30N 40°42' W 074°02'1 1.0
2018-Apr-13 00:00N 40°42' W 074°01'3 6.6
2018-Apr-12 23:30N 40°45' W 074°01'0 0.9
2018-Apr-12 23:00N 40°45' W 074°01'0 0.0
2018-Apr-12 01:25N 40°45' W 074°01'1 3.1
2018-Apr-12 01:00N 40°44' W 074°01'3 5.1
2018-Apr-12 00:31N 40°41' W 074°03'2 3.0
2018-Apr-12 00:00N 40°42' W 074°01'3 6.4
2018-Apr-11 23:30N 40°45' W 074°01'0 0.4
2018-Apr-11 23:00N 40°45' W 074°01'  

Dump ship's entire track history